Estación de Yerbas Buenas

Ultimos registro cada 15 minutos 51
Estación Fecha / Hora Temperatura Humedad Lluvia Velocidad Dirección Radiación Presion
51 Yerbas Buenas 06-05-2026 12:30 14,9 89,6 0 0 31 69,4 997,7
50 Yerbas Buenas 06-05-2026 12:15 14,4 91,3 0 0,5 344 53,1 997,8
49 Yerbas Buenas 06-05-2026 12:00 14,6 91,3 0 0,5 34 91,9 997,4
48 Yerbas Buenas 06-05-2026 11:45 14 92,3 1,4 0,5 38 254,4 996,9
47 Yerbas Buenas 06-05-2026 11:30 13,5 91,8 1,6 1 52 79,4 996,9
46 Yerbas Buenas 06-05-2026 11:15 13,4 91,6 0,6 1 58 31,9 996,9
45 Yerbas Buenas 06-05-2026 11:00 13,1 91,9 1,6 1 62 23,1 996,6
44 Yerbas Buenas 06-05-2026 10:45 13,2 90,9 0,6 1 59 1,9 996,7
43 Yerbas Buenas 06-05-2026 10:30 13,4 90,1 0 1 51 9,4 996,7
42 Yerbas Buenas 06-05-2026 10:15 13,3 90,4 0 1 55 76,9 996,4
41 Yerbas Buenas 06-05-2026 10:00 13,1 91 0,4 1 51 60,6 996
40 Yerbas Buenas 06-05-2026 09:45 12,9 91 0,2 1,5 49 14,4 996,3
39 Yerbas Buenas 06-05-2026 09:30 12,8 91,2 0,4 1 44 18,1 996,4
38 Yerbas Buenas 06-05-2026 09:15 12,8 91,6 1 1,5 51 18,1 995,9
37 Yerbas Buenas 06-05-2026 09:00 12,8 89,9 0 2 56 19,4 995,2
36 Yerbas Buenas 06-05-2026 08:45 12,6 91 0,4 1,5 62 11,9 995,3
35 Yerbas Buenas 06-05-2026 08:30 12,4 91,9 1 1,5 63 1,9 995,4
34 Yerbas Buenas 06-05-2026 08:15 12,3 91,9 2,4 1 53 0,6 995,6
33 Yerbas Buenas 06-05-2026 08:00 12,4 91,2 0,8 1,5 58 0,6 995,5
32 Yerbas Buenas 06-05-2026 07:45 12,4 91,3 0 1 58 0,6 995,5
31 Yerbas Buenas 06-05-2026 07:30 12,4 91,3 1 0,5 59 0,6 995,6
30 Yerbas Buenas 06-05-2026 07:15 12,4 90,7 1,4 0,5 44 0,6 995,3
29 Yerbas Buenas 06-05-2026 07:00 12,6 89,8 1,6 0,5 55 0,6 995
28 Yerbas Buenas 06-05-2026 06:45 12,7 89,5 1,8 0 31 0,6 995,1
27 Yerbas Buenas 06-05-2026 06:30 12,9 87,8 0,2 0,5 38 0,6 994,8
26 Yerbas Buenas 06-05-2026 06:15 12,8 88,7 0,6 0,5 42 0,6 994,6
25 Yerbas Buenas 06-05-2026 06:00 12,6 89,3 3,8 0,5 31 0,6 994,8
24 Yerbas Buenas 06-05-2026 05:45 13,5 83,6 0 0,5 41 0,6 994,7
23 Yerbas Buenas 06-05-2026 05:30 13,5 84,4 0,4 1 44 0,6 994,4
22 Yerbas Buenas 06-05-2026 05:15 13,9 82,7 0,4 0,5 37 0,6 994,6
21 Yerbas Buenas 06-05-2026 05:00 15,1 75 0 1 31 0,6 994,6
20 Yerbas Buenas 06-05-2026 04:45 15,5 72,4 0 2 60 0,6 994,1
19 Yerbas Buenas 06-05-2026 04:30 15,2 73,8 0 1 59 0,6 994,4
18 Yerbas Buenas 06-05-2026 04:15 15,3 73,3 0 1 58 0,6 994,5
17 Yerbas Buenas 06-05-2026 04:00 14,9 75,3 0 0,5 60 0,6 994,8
16 Yerbas Buenas 06-05-2026 03:45 14,6 76,8 0 1 63 0,6 995,2
15 Yerbas Buenas 06-05-2026 03:30 14,4 77,7 0 1 60 0,6 995,2
14 Yerbas Buenas 06-05-2026 03:15 14,4 78,2 0 1 60 0,6 995,5
13 Yerbas Buenas 06-05-2026 03:00 14,1 79,1 0 0,5 58 0,6 995,5
12 Yerbas Buenas 06-05-2026 02:45 14,3 78,7 0 0,5 52 0,6 995,7
11 Yerbas Buenas 06-05-2026 02:30 14,4 78,2 0 1,5 62 0,6 995,5
10 Yerbas Buenas 06-05-2026 02:15 14,2 78,9 0 1,5 59 0,6 995,6
9 Yerbas Buenas 06-05-2026 02:00 14,1 79,5 0 1,5 67 0,6 995,5
8 Yerbas Buenas 06-05-2026 01:45 13,6 81 0 1 65 0,6 995,4
7 Yerbas Buenas 06-05-2026 01:30 13,1 82,5 0 1 67 0,6 995,7
6 Yerbas Buenas 06-05-2026 01:15 12,9 82,8 0 1 65 0,6 995,8
5 Yerbas Buenas 06-05-2026 01:00 12,9 83,5 0 0 66 0,6 995,8
4 Yerbas Buenas 06-05-2026 00:45 12,2 85,4 0 0 14 0,6 996,2
3 Yerbas Buenas 06-05-2026 00:30 12,3 84,4 0 0 4 0,6 996,3
2 Yerbas Buenas 06-05-2026 00:15 13,2 81,6 0 0 0 0,6 996,4
1 Yerbas Buenas 06-05-2026 00:00 13,8 79,4 0 0 1 0,6 996,3